createdAt,value
2022-10-31T07:53:16.303Z,2664.00
2022-10-31T07:54:16.239Z,2672.00
2022-10-31T07:55:16.209Z,2672.00
2022-10-31T07:56:16.199Z,2676.00
2022-10-31T07:57:18.340Z,2680.00
2022-10-31T07:58:16.205Z,2688.00
2022-10-31T07:59:16.164Z,2692.00
2022-10-31T08:00:16.160Z,2708.00
2022-10-31T08:01:16.195Z,2708.00
2022-10-31T08:02:16.141Z,2692.00
2022-10-31T08:03:16.142Z,2676.00
2022-10-31T08:04:16.136Z,2688.00
2022-10-31T08:05:16.134Z,2708.00
2022-10-31T08:06:16.104Z,2732.00
2022-10-31T08:07:16.138Z,2776.00
2022-10-31T08:08:16.082Z,2820.00
2022-10-31T08:09:16.079Z,2868.00
2022-10-31T08:10:16.077Z,2948.00
2022-10-31T08:11:16.050Z,3112.00
2022-10-31T08:12:16.027Z,3148.00
2022-10-31T08:13:16.025Z,3120.00
2022-10-31T08:14:16.020Z,3260.00
2022-10-31T08:15:16.010Z,3248.00
2022-10-31T08:16:16.011Z,3188.00
2022-10-31T08:17:15.988Z,3056.00
2022-10-31T08:18:15.987Z,3076.00
2022-10-31T08:19:15.964Z,3124.00
2022-10-31T08:20:15.947Z,3232.00
2022-10-31T08:21:15.977Z,3320.00
2022-10-31T08:22:15.928Z,3492.00
2022-10-31T08:23:15.914Z,3444.00
2022-10-31T08:24:15.922Z,3444.00
2022-10-31T08:25:15.920Z,3496.00
2022-10-31T08:26:15.898Z,3540.00
2022-10-31T08:27:15.880Z,3540.00
2022-10-31T08:28:15.876Z,3600.00
2022-10-31T08:29:15.864Z,3500.00
2022-10-31T08:30:15.864Z,3464.00
2022-10-31T08:31:15.875Z,3420.00
2022-10-31T08:32:15.816Z,3620.00
2022-10-31T08:33:15.806Z,3728.00
2022-10-31T08:34:15.842Z,3852.00
2022-10-31T08:35:15.837Z,3940.00
2022-10-31T08:36:15.781Z,3812.00
2022-10-31T08:37:15.789Z,3876.00
2022-10-31T08:38:15.768Z,3892.00
2022-10-31T08:39:15.754Z,3972.00
2022-10-31T08:40:15.789Z,3860.00
2022-10-31T08:41:15.749Z,3840.00
2022-10-31T08:42:15.738Z,3952.00
2022-10-31T08:43:15.710Z,3928.00
2022-10-31T08:44:15.712Z,3860.00
2022-10-31T08:45:15.742Z,4068.00
2022-10-31T08:46:15.690Z,4132.00
2022-10-31T08:47:15.649Z,4244.00
2022-10-31T08:48:15.664Z,4328.00
2022-10-31T08:49:15.634Z,4368.00
2022-10-31T08:50:15.618Z,4460.00
2022-10-31T08:51:15.647Z,4496.00
2022-10-31T08:52:15.597Z,4548.00
2022-10-31T08:53:15.602Z,4568.00
2022-10-31T08:54:15.607Z,4608.00
2022-10-31T08:55:15.570Z,4632.00
2022-10-31T08:56:15.562Z,4664.00
2022-10-31T08:57:15.557Z,4712.00
2022-10-31T08:58:15.537Z,4696.00
2022-10-31T08:59:15.543Z,4716.00
2022-10-31T09:00:15.795Z,4848.00
2022-10-31T09:01:15.789Z,4876.00
2022-10-31T09:02:15.798Z,4848.00
2022-10-31T09:03:15.559Z,4848.00
2022-10-31T09:04:15.570Z,4856.00
2022-10-31T09:05:15.508Z,4920.00
2022-10-31T09:06:15.583Z,4992.00
2022-10-31T09:07:20.511Z,5012.00
2022-10-31T09:08:17.230Z,5056.00
2022-10-31T09:09:15.440Z,5072.00
2022-10-31T09:10:15.441Z,5120.00
2022-10-31T09:11:15.418Z,5140.00
2022-10-31T09:12:15.422Z,5228.00
2022-10-31T09:13:15.399Z,5444.00
2022-10-31T09:14:15.364Z,5880.00
2022-10-31T09:15:15.369Z,6048.00
2022-10-31T09:16:15.374Z,5456.00
2022-10-31T09:17:15.334Z,4972.00
2022-10-31T09:19:16.423Z,4924.00
2022-10-31T09:20:15.325Z,6236.00
2022-10-31T09:21:15.300Z,7200.00
2022-10-31T09:22:15.314Z,6824.00
2022-10-31T09:23:15.283Z,6500.00
2022-10-31T09:24:15.270Z,6916.00
2022-10-31T09:25:15.291Z,7260.00
2022-10-31T09:26:15.237Z,6720.00
2022-10-31T09:27:15.239Z,6156.00
2022-10-31T09:28:15.240Z,5896.00
2022-10-31T09:29:15.231Z,5628.00
2022-10-31T09:30:15.211Z,6200.00
2022-10-31T09:31:15.224Z,6848.00
2022-10-31T09:32:15.181Z,6908.00
2022-10-31T09:33:15.187Z,7380.00
2022-10-31T09:34:15.155Z,8000.00
2022-10-31T09:35:16.496Z,8236.00
2022-10-31T09:36:15.146Z,8244.00
2022-10-31T09:37:15.126Z,8256.00
2022-10-31T09:38:15.125Z,8396.00
2022-10-31T09:39:15.156Z,8392.00
2022-10-31T09:40:15.099Z,7104.00
2022-10-31T09:41:15.402Z,5580.00
2022-10-31T09:42:15.109Z,6100.00
2022-10-31T09:43:15.104Z,6788.00
2022-10-31T09:44:15.046Z,7580.00
2022-10-31T09:45:15.084Z,8268.00
2022-10-31T09:46:15.067Z,8532.00
2022-10-31T09:47:15.022Z,8180.00
2022-10-31T09:48:15.022Z,7140.00
2022-10-31T09:49:15.060Z,5816.00
2022-10-31T09:50:15.031Z,6316.00
2022-10-31T09:51:14.989Z,7484.00
2022-10-31T09:52:14.998Z,6668.00
2022-10-31T09:53:14.957Z,7784.00
2022-10-31T09:54:14.947Z,7784.00
2022-10-31T09:55:14.928Z,7656.00
2022-10-31T09:56:14.930Z,7360.00
2022-10-31T09:57:14.962Z,7076.00
2022-10-31T09:58:14.917Z,7384.00
2022-10-31T09:59:14.897Z,7240.00
2022-10-31T10:00:14.886Z,7172.00
2022-10-31T10:01:15.092Z,7124.00
2022-10-31T10:02:14.929Z,7248.00
2022-10-31T10:03:14.858Z,7184.00
2022-10-31T10:04:19.827Z,7012.00
2022-10-31T10:05:15.862Z,7008.00
2022-10-31T10:06:14.821Z,6536.00
2022-10-31T10:07:14.820Z,7080.00
2022-10-31T10:08:14.806Z,6264.00
2022-10-31T10:09:14.868Z,6644.00
2022-10-31T10:10:14.787Z,6700.00
2022-10-31T10:11:14.760Z,6856.00
2022-10-31T10:12:14.755Z,7144.00
2022-10-31T10:13:14.737Z,7080.00
2022-10-31T10:14:14.766Z,6644.00
2022-10-31T10:15:14.744Z,6756.00
2022-10-31T10:16:14.705Z,6388.00
2022-10-31T10:17:14.726Z,6528.00
2022-10-31T10:18:14.702Z,6904.00
2022-10-31T10:19:14.692Z,7140.00
2022-10-31T10:20:14.997Z,7560.00
2022-10-31T10:21:14.662Z,7504.00
2022-10-31T10:22:14.652Z,7484.00
2022-10-31T10:23:14.651Z,7544.00
2022-10-31T10:24:14.628Z,7516.00
2022-10-31T10:25:14.644Z,7536.00
2022-10-31T10:26:14.625Z,7616.00
2022-10-31T10:27:16.829Z,7424.00
2022-10-31T10:28:14.588Z,7184.00
2022-10-31T10:29:14.581Z,7376.00
2022-10-31T10:30:14.560Z,7468.00
2022-10-31T10:31:14.573Z,7884.00
2022-10-31T10:32:14.556Z,7924.00
2022-10-31T10:33:14.569Z,7936.00
2022-10-31T10:34:14.522Z,7704.00
2022-10-31T10:35:14.511Z,7536.00
2022-10-31T10:36:14.502Z,7464.00
2022-10-31T10:37:14.508Z,7232.00
2022-10-31T10:38:14.486Z,6888.00
2022-10-31T10:39:14.470Z,6480.00
2022-10-31T10:40:14.453Z,6696.00
2022-10-31T10:41:14.457Z,7208.00
2022-10-31T10:42:14.457Z,5992.00
2022-10-31T10:43:14.437Z,6416.00
2022-10-31T10:44:14.437Z,6040.00
2022-10-31T10:45:14.428Z,6468.00
2022-10-31T10:46:14.383Z,6452.00
2022-10-31T10:47:14.384Z,6424.00
2022-10-31T10:48:14.380Z,6320.00
2022-10-31T10:49:14.386Z,6732.00
2022-10-31T10:50:14.356Z,6940.00
2022-10-31T10:51:25.676Z,6980.00
2022-10-31T10:53:15.334Z,7600.00
2022-10-31T10:54:14.299Z,7264.00
2022-10-31T10:55:14.315Z,7580.00
2022-10-31T10:56:14.281Z,7228.00
2022-10-31T10:57:14.266Z,6988.00
2022-10-31T10:58:14.291Z,6612.00
2022-10-31T10:59:14.251Z,6600.00
2022-10-31T11:00:14.237Z,6360.00
2022-10-31T11:02:14.502Z,6336.00
2022-10-31T11:03:25.832Z,6316.00
2022-10-31T11:04:14.224Z,6052.00
2022-10-31T11:05:14.264Z,5788.00
2022-10-31T11:06:14.173Z,5548.00
2022-10-31T11:07:14.180Z,5712.00
2022-10-31T11:08:14.145Z,5984.00
2022-10-31T11:09:14.144Z,5976.00
2022-10-31T11:10:14.171Z,5984.00
2022-10-31T11:11:14.172Z,5848.00
2022-10-31T11:12:14.112Z,5816.00
2022-10-31T11:13:14.101Z,5764.00
2022-10-31T11:14:14.122Z,5620.00
2022-10-31T11:15:14.102Z,5588.00
2022-10-31T11:16:14.079Z,5640.00
2022-10-31T11:17:14.071Z,5856.00
2022-10-31T11:18:14.098Z,5788.00
2022-10-31T11:19:14.038Z,5584.00
2022-10-31T11:20:17.905Z,5836.00
2022-10-31T11:21:15.062Z,5848.00
2022-10-31T11:22:14.010Z,6028.00
2022-10-31T11:23:13.990Z,6020.00
2022-10-31T11:24:14.006Z,5920.00
2022-10-31T11:25:13.983Z,5984.00
2022-10-31T11:26:13.953Z,5768.00
2022-10-31T11:27:13.949Z,5324.00
2022-10-31T11:28:13.940Z,4920.00
2022-10-31T11:29:13.992Z,4788.00
2022-10-31T11:30:13.911Z,4816.00
2022-10-31T11:31:13.905Z,4976.00
2022-10-31T11:32:13.893Z,5096.00
2022-10-31T11:33:13.875Z,5356.00
2022-10-31T11:34:13.899Z,5068.00
2022-10-31T11:35:13.879Z,5224.00
2022-10-31T11:36:13.910Z,5624.00
2022-10-31T11:37:13.849Z,5932.00
2022-10-31T11:38:13.832Z,6124.00
2022-10-31T11:39:13.827Z,6276.00
2022-10-31T11:40:13.808Z,6112.00
2022-10-31T11:41:13.806Z,5768.00
2022-10-31T11:42:13.808Z,5620.00
2022-10-31T11:43:13.772Z,5332.00
2022-10-31T11:44:13.756Z,5148.00
2022-10-31T11:45:13.765Z,5060.00
2022-10-31T11:46:13.747Z,4880.00
2022-10-31T11:47:13.735Z,4824.00
2022-10-31T11:48:13.716Z,5172.00
2022-10-31T11:49:13.715Z,5176.00
2022-10-31T11:50:13.711Z,5092.00
2022-10-31T11:51:13.678Z,5056.00
2022-10-31T11:52:13.692Z,5116.00
2022-10-31T11:53:13.685Z,5344.00
2022-10-31T11:54:13.672Z,5320.00
2022-10-31T11:55:13.665Z,5340.00
2022-10-31T11:56:13.655Z,5236.00
2022-10-31T11:57:13.624Z,5256.00
2022-10-31T11:58:13.603Z,5324.00
2022-10-31T11:59:13.601Z,5600.00
2022-10-31T12:00:13.703Z,5352.00
2022-10-31T12:01:13.647Z,5172.00
2022-10-31T12:02:13.732Z,5088.00
2022-10-31T12:03:13.568Z,5172.00
2022-10-31T12:04:14.313Z,5340.00
2022-10-31T12:05:13.557Z,5464.00
2022-10-31T12:06:13.998Z,5452.00
2022-10-31T12:07:14.283Z,5308.00
2022-10-31T12:08:14.310Z,5104.00
2022-10-31T12:09:13.516Z,5188.00
2022-10-31T12:10:13.484Z,5568.00
2022-10-31T12:11:13.486Z,4884.00
2022-10-31T12:12:13.494Z,4472.00
2022-10-31T12:13:13.450Z,4756.00
2022-10-31T12:14:13.442Z,4576.00
2022-10-31T12:15:13.492Z,4588.00
2022-10-31T12:16:13.419Z,4488.00
2022-10-31T12:17:13.418Z,4368.00
2022-10-31T12:18:13.464Z,4576.00
2022-10-31T12:19:13.387Z,4476.00
2022-10-31T12:20:13.403Z,4588.00
2022-10-31T12:21:13.376Z,4648.00
2022-10-31T12:22:13.365Z,4552.00
2022-10-31T12:23:13.369Z,4416.00
2022-10-31T12:24:13.389Z,4532.00
2022-10-31T12:25:13.342Z,4972.00
2022-10-31T12:26:13.314Z,5480.00
2022-10-31T12:27:13.304Z,5404.00
2022-10-31T12:28:13.295Z,5500.00
2022-10-31T12:29:13.310Z,5432.00
2022-10-31T12:30:13.271Z,5116.00
2022-10-31T12:31:13.275Z,4980.00
2022-10-31T12:32:13.254Z,5308.00
2022-10-31T12:33:13.239Z,5552.00
2022-10-31T12:34:13.266Z,5420.00
2022-10-31T12:35:13.208Z,5440.00
2022-10-31T12:36:15.409Z,5268.00
2022-10-31T12:37:13.192Z,4752.00
2022-10-31T12:38:13.194Z,4384.00
2022-10-31T12:39:13.201Z,4692.00
2022-10-31T12:40:13.186Z,4520.00
2022-10-31T12:41:13.194Z,4652.00
2022-10-31T12:42:13.146Z,4968.00
2022-10-31T12:43:13.196Z,4632.00
2022-10-31T12:44:13.146Z,4468.00
2022-10-31T12:45:13.146Z,4256.00
2022-10-31T12:46:13.109Z,4508.00
2022-10-31T12:47:13.095Z,4676.00
2022-10-31T12:48:13.113Z,4348.00
2022-10-31T12:49:13.064Z,4116.00
2022-10-31T12:50:13.139Z,4004.00
2022-10-31T12:51:13.093Z,4000.00
2022-10-31T12:52:13.060Z,4136.00
2022-10-31T12:53:13.108Z,4272.00
2022-10-31T12:54:13.025Z,4524.00
2022-10-31T12:55:13.003Z,4320.00
2022-10-31T12:56:12.997Z,4076.00
2022-10-31T12:57:13.006Z,3932.00
2022-10-31T12:58:12.979Z,3788.00
2022-10-31T12:59:13.001Z,3856.00
2022-10-31T13:00:13.064Z,3816.00
2022-10-31T13:01:13.022Z,3764.00
2022-10-31T13:02:13.013Z,3772.00
2022-10-31T13:03:12.956Z,3672.00
2022-10-31T13:04:12.924Z,3616.00
2022-10-31T13:05:12.905Z,3564.00
2022-10-31T13:06:12.888Z,3484.00
2022-10-31T13:07:12.926Z,3456.00
2022-10-31T13:08:12.901Z,3552.00
2022-10-31T13:09:12.876Z,3688.00
2022-10-31T13:10:20.793Z,3688.00
2022-10-31T13:11:13.004Z,3740.00
2022-10-31T13:12:12.940Z,3908.00
2022-10-31T13:13:12.844Z,4024.00
2022-10-31T13:14:12.838Z,4244.00
2022-10-31T13:15:12.827Z,4632.00
2022-10-31T13:16:12.835Z,4860.00
2022-10-31T13:17:12.818Z,4952.00
2022-10-31T13:18:12.825Z,4808.00
2022-10-31T13:19:12.862Z,4636.00
2022-10-31T13:20:12.926Z,4392.00
2022-10-31T13:21:12.855Z,4096.00
2022-10-31T13:22:12.867Z,4032.00
2022-10-31T13:23:23.844Z,4064.00
2022-10-31T13:24:13.783Z,3860.00
2022-10-31T13:25:12.816Z,3948.00
2022-10-31T13:26:12.883Z,3808.00
2022-10-31T13:27:12.690Z,3696.00
2022-10-31T13:28:12.711Z,3496.00
2022-10-31T13:29:12.707Z,3288.00
2022-10-31T13:30:12.851Z,3064.00
2022-10-31T13:31:12.678Z,2876.00
2022-10-31T13:32:12.729Z,2812.00
2022-10-31T13:33:12.632Z,2808.00
2022-10-31T13:34:12.612Z,2824.00
2022-10-31T13:35:12.705Z,2924.00
2022-10-31T13:36:12.645Z,2960.00
2022-10-31T13:38:24.361Z,2700.00
2022-10-31T13:40:36.717Z,2520.00
2022-10-31T13:41:36.690Z,2484.00
2022-10-31T13:42:36.625Z,2340.00
2022-10-31T13:44:50.004Z,2128.00
2022-10-31T13:45:49.917Z,2112.00
2022-10-31T13:47:01.141Z,2164.00
2022-10-31T13:48:00.564Z,2196.00
2022-10-31T13:48:49.915Z,2140.00
2022-10-31T13:53:22.634Z,2284.00
2022-10-31T13:54:22.493Z,2220.00
2022-10-31T13:55:22.457Z,2100.00
2022-10-31T13:56:22.442Z,2048.00
2022-10-31T13:57:22.463Z,1984.00
2022-10-31T13:58:22.422Z,1944.00
2022-10-31T13:59:22.404Z,1960.00
2022-10-31T14:00:22.416Z,1956.00
2022-10-31T14:01:22.544Z,1884.00
2022-10-31T14:02:22.434Z,1812.00
2022-10-31T14:03:36.141Z,1792.00
2022-10-31T14:04:25.697Z,1776.00
2022-10-31T14:05:22.334Z,1764.00
2022-10-31T14:06:22.344Z,1796.00
2022-10-31T14:07:22.316Z,1776.00
2022-10-31T14:08:22.353Z,1828.00
2022-10-31T14:09:22.301Z,1816.00
2022-10-31T14:10:22.374Z,1856.00
2022-10-31T14:11:22.285Z,1844.00
2022-10-31T14:12:22.314Z,1824.00
2022-10-31T14:13:22.258Z,1672.00
2022-10-31T14:14:22.272Z,1572.00
2022-10-31T14:15:22.260Z,1524.00
2022-10-31T14:16:22.255Z,1528.00
2022-10-31T14:17:22.238Z,1472.00
2022-10-31T14:18:31.196Z,1392.00
2022-10-31T14:19:31.053Z,1348.00
2022-10-31T14:20:29.899Z,1308.00
2022-10-31T14:21:22.305Z,1292.00
2022-10-31T14:22:22.211Z,1288.00
2022-10-31T14:23:22.142Z,1304.00
2022-10-31T14:24:22.130Z,1320.00
2022-10-31T14:25:22.177Z,1284.00
2022-10-31T14:26:22.259Z,1260.00
2022-10-31T14:27:22.156Z,1264.00
2022-10-31T14:28:32.201Z,1240.00
2022-10-31T14:29:22.088Z,1224.00
2022-10-31T14:30:22.111Z,1196.00
2022-10-31T14:32:40.925Z,1164.00
2022-10-31T14:33:40.691Z,1128.00
2022-10-31T14:35:54.319Z,1052.00
2022-10-31T14:37:02.702Z,1040.00
2022-10-31T14:39:06.017Z,1020.00
2022-10-31T14:40:05.761Z,996.00
2022-10-31T14:42:17.804Z,936.00
2022-10-31T14:43:17.701Z,920.00
2022-10-31T14:45:28.968Z,924.00
2022-10-31T14:47:42.460Z,904.00
2022-10-31T14:48:42.141Z,888.00
2022-10-31T14:49:42.128Z,872.00
2022-10-31T14:50:42.295Z,860.00
2022-10-31T14:51:42.230Z,868.00
2022-10-31T14:52:53.253Z,872.00
2022-10-31T14:54:58.096Z,844.00
2022-10-31T14:57:09.357Z,756.00
2022-10-31T14:59:21.214Z,684.00
2022-10-31T15:01:32.589Z,660.00
2022-10-31T15:02:43.746Z,640.00
2022-10-31T15:03:44.665Z,612.00
2022-10-31T15:05:42.987Z,548.00
2022-10-31T15:06:54.282Z,528.00
2022-10-31T15:09:02.511Z,472.00
2022-10-31T15:11:14.646Z,436.00
2022-10-31T15:12:14.544Z,420.00
2022-10-31T15:13:14.506Z,400.00
2022-10-31T15:14:14.518Z,380.00
2022-10-31T15:15:14.491Z,372.00
2022-10-31T15:16:14.458Z,356.00
2022-10-31T15:17:14.465Z,336.00
2022-10-31T15:18:14.436Z,324.00
2022-10-31T15:19:14.422Z,312.00
2022-10-31T15:20:14.429Z,296.00
2022-10-31T15:21:14.426Z,272.00
2022-10-31T15:22:14.390Z,268.00
2022-10-31T15:23:14.400Z,264.00
2022-10-31T15:24:14.370Z,244.00
2022-10-31T15:25:14.356Z,232.00
2022-10-31T15:26:14.365Z,216.00
2022-10-31T15:27:14.337Z,200.00
2022-10-31T15:28:14.361Z,180.00
2022-10-31T15:29:14.336Z,168.00
2022-10-31T15:30:14.340Z,156.00
2022-10-31T15:31:14.309Z,152.00
2022-10-31T15:32:14.320Z,140.00
2022-10-31T15:33:14.291Z,128.00
2022-10-31T15:35:14.274Z,112.00
2022-10-31T15:36:14.253Z,108.00
2022-10-31T15:37:14.257Z,100.00
2022-10-31T15:38:14.249Z,96.00
2022-10-31T15:39:14.216Z,88.00
2022-10-31T15:40:16.426Z,80.00
2022-10-31T15:41:14.190Z,76.00
2022-10-31T15:42:14.213Z,68.00
2022-10-31T15:43:14.165Z,60.00
2022-10-31T15:44:14.209Z,56.00
2022-10-31T15:45:14.140Z,52.00
2022-10-31T15:46:14.127Z,48.00
2022-10-31T15:47:16.945Z,44.00
2022-10-31T15:48:14.121Z,36.00
2022-10-31T15:49:14.097Z,32.00
2022-10-31T15:50:14.116Z,28.00
2022-10-31T15:51:14.090Z,28.00
2022-10-31T15:52:14.073Z,20.00
2022-10-31T15:53:14.055Z,20.00
2022-10-31T15:54:14.064Z,16.00
2022-10-31T15:55:14.073Z,16.00
2022-10-31T15:56:14.029Z,12.00
2022-10-31T15:57:14.012Z,12.00
2022-10-31T15:58:13.999Z,12.00
2022-10-31T15:59:13.983Z,8.00
2022-10-31T16:00:13.987Z,8.00
2022-10-31T16:01:14.131Z,8.00
2022-10-31T16:02:14.101Z,4.00
2022-10-31T16:03:13.950Z,8.00
2022-10-31T16:04:13.949Z,4.00
2022-10-31T16:05:13.924Z,4.00
2022-10-31T16:06:13.929Z,4.00
2022-10-31T16:07:17.477Z,4.00
2022-10-31T16:08:14.902Z,4.00
2022-10-31T16:09:13.889Z,0.00
2022-10-31T16:10:13.898Z,0.00
2022-10-31T16:11:13.897Z,0.00
2022-10-31T16:12:14.842Z,0.00
2022-10-31T16:13:13.844Z,0.00
2022-10-31T16:14:13.831Z,0.00
2022-10-31T16:15:13.864Z,0.00
2022-10-31T16:16:34.216Z,0.00
2022-10-31T16:17:14.846Z,0.00
2022-10-31T16:18:13.800Z,0.00
2022-10-31T16:19:13.790Z,0.00
2022-10-31T16:20:13.782Z,0.00
2022-10-31T16:21:13.761Z,0.00
2022-10-31T16:22:13.852Z,0.00
2022-10-31T16:23:13.779Z,0.00
2022-10-31T16:24:13.787Z,0.00
2022-10-31T16:25:14.806Z,0.00
2022-10-31T16:26:13.713Z,0.00
2022-10-31T16:27:13.701Z,0.00
2022-10-31T16:29:13.924Z,0.00
2022-10-31T16:31:36.614Z,0.00
2022-10-31T16:32:43.427Z,0.00
2022-10-31T16:35:44.531Z,0.00
2022-10-31T16:37:59.146Z,0.00
2022-10-31T16:38:58.230Z,0.00
2022-10-31T16:41:44.495Z,0.00
2022-10-31T16:42:55.269Z,0.00
2022-10-31T16:45:09.340Z,0.00
2022-10-31T16:47:40.920Z,0.00
2022-10-31T16:48:53.473Z,0.00
2022-10-31T16:51:23.285Z,0.00
2022-10-31T16:53:46.855Z,0.00
2022-10-31T16:55:54.772Z,0.00
2022-10-31T16:56:54.907Z,0.00
2022-10-31T16:57:54.655Z,0.00
2022-10-31T17:02:33.811Z,0.00
2022-10-31T17:06:31.781Z,0.00
2022-10-31T17:07:24.067Z,0.00
2022-10-31T17:09:44.717Z,0.00
2022-10-31T17:13:06.785Z,0.00
2022-10-31T17:14:06.788Z,0.00
2022-10-31T17:20:11.740Z,0.00
2022-10-31T17:21:12.262Z,0.00
2022-10-31T17:22:10.713Z,0.00
2022-10-31T17:24:32.346Z,0.00
2022-10-31T17:25:32.170Z,0.00
2022-10-31T17:26:31.967Z,0.00
2022-10-31T17:30:52.856Z,0.00
2022-10-31T17:31:53.002Z,0.00
2022-10-31T17:32:54.458Z,0.00
2022-10-31T17:37:36.896Z,0.00
2022-10-31T17:38:12.997Z,0.00
2022-10-31T17:39:24.573Z,0.00
2022-10-31T17:41:38.809Z,0.00
2022-10-31T17:43:52.671Z,0.00
2022-10-31T17:45:03.322Z,0.00
2022-10-31T17:54:40.964Z,0.00
2022-10-31T18:00:35.952Z,0.00
2022-10-31T18:03:12.031Z,0.00
2022-10-31T18:06:53.682Z,0.00
2022-10-31T18:07:52.726Z,0.00
2022-10-31T18:13:16.186Z,0.00
2022-10-31T18:14:31.909Z,0.00
2022-10-31T18:15:28.139Z,0.00
2022-10-31T18:17:29.215Z,0.00
2022-10-31T18:18:48.811Z,0.00
2022-10-31T18:19:31.010Z,0.00
2022-10-31T18:20:37.543Z,0.00
2022-10-31T18:22:54.420Z,0.00
2022-10-31T18:24:04.829Z,0.00
2022-10-31T18:26:06.265Z,0.00
2022-10-31T18:27:06.208Z,0.00
2022-10-31T18:28:13.985Z,0.00
2022-10-31T18:29:16.202Z,0.00
2022-10-31T18:30:06.257Z,0.00
2022-10-31T18:32:35.309Z,0.00
2022-10-31T18:34:48.810Z,0.00
2022-10-31T18:35:58.260Z,0.00
2022-10-31T18:36:59.130Z,0.00
2022-10-31T18:37:47.738Z,0.00
2022-10-31T18:40:20.235Z,0.00
2022-10-31T18:41:20.434Z,0.00
2022-10-31T18:43:37.092Z,0.00
2022-10-31T18:45:50.275Z,0.00
2022-10-31T18:48:00.833Z,0.00
2022-10-31T18:51:37.215Z,0.00
2022-10-31T18:54:00.021Z,0.00
2022-10-31T18:55:11.713Z,0.00
2022-10-31T18:57:12.498Z,0.00
2022-10-31T18:58:26.410Z,0.00
2022-10-31T19:00:25.061Z,0.00
2022-10-31T19:01:36.630Z,0.00
2022-10-31T19:02:36.530Z,0.00
2022-10-31T19:03:36.758Z,0.00
2022-10-31T19:04:24.719Z,0.00
2022-10-31T19:07:30.694Z,0.00
2022-10-31T19:10:06.686Z,0.00
2022-10-31T19:12:48.574Z,0.00
2022-10-31T19:15:30.254Z,0.00
2022-10-31T19:17:48.761Z,0.00
2022-10-31T19:21:52.182Z,0.00
2022-10-31T19:24:05.315Z,0.00
2022-10-31T19:27:06.286Z,0.00
2022-10-31T19:29:22.307Z,0.00
2022-10-31T19:31:34.316Z,0.00
2022-10-31T19:33:47.030Z,0.00
2022-10-31T19:34:57.841Z,0.00
2022-10-31T19:35:47.137Z,0.00
2022-10-31T19:39:19.564Z,0.00
2022-10-31T19:41:31.082Z,0.00
2022-10-31T19:45:13.652Z,0.00
2022-10-31T19:47:26.709Z,0.00
2022-10-31T19:48:36.171Z,0.00
2022-10-31T19:50:49.572Z,0.00
2022-10-31T19:53:00.472Z,0.00
2022-10-31T19:55:14.863Z,0.00
2022-10-31T19:58:15.586Z,0.00
2022-10-31T19:59:24.309Z,0.00
2022-10-31T20:00:23.903Z,0.00
2022-10-31T20:01:15.388Z,0.00
2022-10-31T20:02:26.037Z,0.00
2022-10-31T20:03:18.419Z,0.00
2022-10-31T20:04:16.300Z,0.00
2022-10-31T20:05:15.177Z,0.00
2022-10-31T20:06:15.236Z,0.00
2022-10-31T20:08:26.849Z,0.00
2022-10-31T20:10:38.228Z,0.00
2022-10-31T20:11:46.833Z,0.00
2022-10-31T20:12:45.731Z,0.00
2022-10-31T20:13:46.005Z,0.00
2022-10-31T20:14:47.083Z,0.00
2022-10-31T20:15:46.690Z,0.00
2022-10-31T20:16:46.614Z,0.00
2022-10-31T20:18:51.409Z,0.00
2022-10-31T20:19:51.397Z,0.00
2022-10-31T20:20:51.384Z,0.00
2022-10-31T20:21:51.326Z,0.00
2022-10-31T20:22:51.340Z,0.00
2022-10-31T20:24:00.061Z,0.00
2022-10-31T20:24:51.379Z,0.00
2022-10-31T20:25:51.289Z,0.00
2022-10-31T20:26:51.284Z,0.00
2022-10-31T20:27:51.263Z,0.00
2022-10-31T20:28:51.219Z,0.00
2022-10-31T20:29:51.263Z,0.00
2022-10-31T20:30:51.207Z,0.00
2022-10-31T20:31:51.236Z,0.00
2022-10-31T20:32:51.221Z,0.00
2022-10-31T20:33:51.217Z,0.00
2022-10-31T20:34:51.156Z,0.00
2022-10-31T20:35:51.139Z,0.00
2022-10-31T20:36:51.146Z,0.00
2022-10-31T20:37:51.208Z,0.00
2022-10-31T20:38:51.111Z,0.00
2022-10-31T20:39:54.075Z,0.00
2022-10-31T20:40:52.135Z,0.00
2022-10-31T20:41:51.082Z,0.00
2022-10-31T20:42:51.117Z,0.00
2022-10-31T20:43:51.063Z,0.00
2022-10-31T20:44:51.069Z,0.00
2022-10-31T20:45:51.037Z,0.00
2022-10-31T20:46:51.040Z,0.00
2022-10-31T20:47:51.045Z,0.00
2022-10-31T20:48:50.999Z,0.00
2022-10-31T20:49:50.989Z,0.00
2022-10-31T20:50:50.982Z,0.00
2022-10-31T20:51:50.972Z,0.00
2022-10-31T20:53:02.335Z,0.00
2022-10-31T20:53:51.032Z,0.00
2022-10-31T20:55:01.185Z,0.00
2022-10-31T20:56:04.277Z,0.00
2022-10-31T20:58:02.476Z,0.00
2022-10-31T20:59:14.139Z,0.00
2022-10-31T21:00:02.404Z,0.00
2022-10-31T21:01:02.571Z,0.00
2022-10-31T21:02:02.633Z,0.00
2022-10-31T21:03:12.002Z,0.00
2022-10-31T21:04:02.413Z,0.00
2022-10-31T21:05:02.397Z,0.00
2022-10-31T21:06:02.406Z,0.00
2022-10-31T21:07:02.293Z,0.00
2022-10-31T21:08:02.304Z,0.00
2022-10-31T21:09:02.248Z,0.00
2022-10-31T21:10:02.196Z,0.00
2022-10-31T21:11:02.152Z,0.00
2022-10-31T21:12:02.148Z,0.00
2022-10-31T21:13:02.432Z,0.00
2022-10-31T21:14:02.113Z,0.00
2022-10-31T21:15:02.114Z,0.00
2022-10-31T21:16:02.118Z,0.00
2022-10-31T21:17:02.162Z,0.00
2022-10-31T21:18:02.132Z,0.00
2022-10-31T21:19:02.106Z,0.00
2022-10-31T21:20:02.053Z,0.00
2022-10-31T21:21:02.115Z,0.00
2022-10-31T21:22:02.124Z,0.00
2022-10-31T21:24:26.679Z,0.00
2022-10-31T21:25:26.574Z,0.00
2022-10-31T21:26:26.414Z,0.00
2022-10-31T21:27:26.394Z,0.00
2022-10-31T21:28:26.351Z,0.00
2022-10-31T21:30:43.861Z,0.00
2022-10-31T21:31:43.808Z,0.00
2022-10-31T21:33:55.270Z,0.00
2022-10-31T21:36:08.600Z,0.00
2022-10-31T21:37:08.472Z,0.00
2022-10-31T21:39:21.077Z,0.00
2022-10-31T21:40:20.997Z,0.00
2022-10-31T21:41:29.323Z,0.00
2022-10-31T21:43:31.956Z,0.00
2022-10-31T21:44:31.808Z,0.00
2022-10-31T21:45:41.273Z,0.00
2022-10-31T21:47:46.076Z,0.00
2022-10-31T21:48:55.362Z,0.00
2022-10-31T21:50:57.447Z,0.00
2022-10-31T21:53:09.056Z,0.00
2022-10-31T21:54:08.846Z,0.00
2022-10-31T21:55:18.119Z,0.00
2022-10-31T21:58:32.376Z,0.00
2022-10-31T22:00:32.093Z,0.00
2022-10-31T22:01:32.089Z,0.00
2022-10-31T22:02:42.897Z,0.00
2022-10-31T22:04:43.462Z,0.00
2022-10-31T22:05:43.385Z,0.00
2022-10-31T22:06:43.334Z,0.00
2022-10-31T22:07:43.365Z,0.00
2022-10-31T22:08:43.315Z,0.00
2022-10-31T22:10:53.514Z,0.00
2022-10-31T22:11:53.676Z,0.00
2022-10-31T22:12:53.454Z,0.00
2022-10-31T22:13:53.341Z,0.00
2022-10-31T22:14:53.407Z,0.00
2022-10-31T22:15:53.244Z,0.00
2022-10-31T22:16:53.279Z,0.00
2022-10-31T22:17:53.245Z,0.00
2022-10-31T22:18:53.379Z,0.00
2022-10-31T22:19:53.241Z,0.00
2022-10-31T22:20:53.294Z,0.00
2022-10-31T22:21:53.261Z,0.00
2022-10-31T22:22:53.212Z,0.00
2022-10-31T22:23:53.259Z,0.00
2022-10-31T22:24:53.224Z,0.00
2022-10-31T22:25:53.171Z,0.00
2022-10-31T22:26:53.146Z,0.00
2022-10-31T22:27:53.143Z,0.00
2022-10-31T22:28:53.325Z,0.00
2022-10-31T22:29:56.528Z,0.00
2022-10-31T22:30:53.275Z,0.00
2022-10-31T22:31:57.341Z,0.00
2022-10-31T22:32:54.078Z,0.00
2022-10-31T22:33:53.068Z,0.00
2022-10-31T22:34:53.099Z,0.00
2022-10-31T22:35:53.120Z,0.00
2022-10-31T22:36:53.130Z,0.00
2022-10-31T22:37:53.056Z,0.00
2022-10-31T22:38:53.023Z,0.00
2022-10-31T22:39:53.017Z,0.00
2022-10-31T22:40:53.009Z,0.00
2022-10-31T22:42:01.702Z,0.00
2022-10-31T22:42:53.100Z,0.00
2022-10-31T22:44:00.686Z,0.00
2022-10-31T22:44:53.079Z,0.00
2022-10-31T22:45:53.081Z,0.00
2022-10-31T22:46:52.995Z,0.00
2022-10-31T22:48:01.819Z,0.00
2022-10-31T22:49:01.570Z,0.00
2022-10-31T22:49:53.017Z,0.00
2022-10-31T22:51:03.992Z,0.00
2022-10-31T22:52:00.971Z,0.00
2022-10-31T22:52:52.965Z,0.00
2022-10-31T22:53:52.911Z,0.00
2022-10-31T22:55:02.109Z,0.00
2022-10-31T22:55:52.908Z,0.00
2022-10-31T22:56:52.937Z,0.00
2022-10-31T22:57:52.850Z,0.00
2022-10-31T22:58:52.992Z,0.00
2022-10-31T22:59:52.852Z,0.00
2022-10-31T23:01:03.667Z,0.00
2022-10-31T23:01:52.987Z,0.00
2022-10-31T23:02:52.839Z,0.00
2022-10-31T23:05:04.217Z,0.00
2022-10-31T23:07:14.880Z,0.00
2022-10-31T23:08:23.040Z,0.00
2022-10-31T23:09:14.408Z,0.00
2022-10-31T23:10:21.975Z,0.00
2022-10-31T23:12:25.795Z,0.00
2022-10-31T23:13:33.637Z,0.00